createdAt,value
2022-12-20T00:01:34.741Z,0.88
2022-12-20T00:04:05.700Z,1.30
2022-12-20T00:06:35.935Z,1.13
2022-12-20T00:09:06.088Z,1.20
2022-12-20T00:11:33.895Z,1.15
2022-12-20T00:14:00.863Z,1.00
2022-12-20T00:16:29.445Z,1.05
2022-12-20T00:19:00.473Z,1.13
2022-12-20T00:21:29.147Z,1.20
2022-12-20T00:23:56.978Z,1.13
2022-12-20T00:26:31.642Z,1.23
2022-12-20T00:29:00.281Z,0.85
2022-12-20T00:31:29.565Z,1.10
2022-12-20T00:33:59.155Z,1.13
2022-12-20T00:36:29.998Z,0.95
2022-12-20T00:38:58.537Z,1.05
2022-12-20T00:41:29.202Z,1.20
2022-12-20T00:43:56.389Z,0.90
2022-12-20T00:46:24.667Z,1.00
2022-12-20T00:48:53.307Z,0.95
2022-12-20T00:51:25.292Z,1.10
2022-12-20T00:53:53.493Z,0.90
2022-12-20T00:56:21.696Z,1.13
2022-12-20T00:58:48.868Z,1.20
2022-12-20T01:01:30.851Z,1.10
2022-12-20T01:03:58.374Z,1.00
2022-12-20T01:06:26.473Z,1.00
2022-12-20T01:08:56.962Z,0.85
2022-12-20T01:11:33.331Z,1.15
2022-12-20T01:14:12.908Z,0.95
2022-12-20T01:16:43.487Z,0.80
2022-12-20T01:19:14.959Z,0.95
2022-12-20T01:21:45.882Z,1.00
2022-12-20T01:24:18.072Z,1.10
2022-12-20T01:26:46.958Z,1.10
2022-12-20T01:29:14.773Z,0.80
2022-12-20T01:31:42.447Z,1.10
2022-12-20T01:34:11.218Z,1.08
2022-12-20T01:36:39.256Z,0.90
2022-12-20T01:39:14.468Z,1.00
2022-12-20T01:41:44.022Z,1.00
2022-12-20T01:44:16.924Z,0.90
2022-12-20T01:46:46.316Z,1.00
2022-12-20T01:49:25.234Z,0.90
2022-12-20T01:52:09.498Z,0.85
2022-12-20T01:54:50.524Z,0.93
2022-12-20T01:58:19.621Z,0.90
2022-12-20T02:00:47.792Z,0.98
2022-12-20T02:03:16.720Z,1.10
2022-12-20T02:05:46.903Z,1.00
2022-12-20T02:08:18.439Z,0.90
2022-12-20T02:11:31.950Z,1.20
2022-12-20T02:14:18.761Z,1.30
2022-12-20T02:17:21.604Z,0.77
2022-12-20T02:20:18.635Z,1.17
2022-12-20T02:23:09.458Z,0.90
2022-12-20T02:26:16.768Z,1.08
2022-12-20T02:29:15.687Z,0.70
2022-12-20T02:31:48.709Z,0.70
2022-12-20T02:34:17.152Z,0.90
2022-12-20T02:36:44.092Z,0.90
2022-12-20T02:39:16.272Z,0.98
2022-12-20T02:41:55.303Z,0.80
2022-12-20T02:44:45.859Z,0.70
2022-12-20T02:47:22.453Z,0.80
2022-12-20T02:49:51.525Z,1.10
2022-12-20T02:52:22.458Z,0.88
2022-12-20T02:54:49.585Z,0.80
2022-12-20T02:57:22.608Z,1.20
2022-12-20T03:00:02.117Z,0.73
2022-12-20T03:02:50.718Z,0.82
2022-12-20T03:05:20.339Z,1.00
2022-12-20T03:07:47.476Z,0.80
2022-12-20T03:10:14.686Z,0.90
2022-12-20T03:12:41.609Z,1.20
2022-12-20T03:15:09.457Z,0.75
2022-12-20T03:17:37.160Z,0.80
2022-12-20T03:20:06.639Z,0.90
2022-12-20T03:22:35.161Z,0.80
2022-12-20T03:25:02.063Z,0.90
2022-12-20T03:27:29.375Z,0.90
2022-12-20T03:29:56.417Z,0.82
2022-12-20T03:32:23.387Z,0.70
2022-12-20T03:34:50.290Z,0.82
2022-12-20T03:37:17.524Z,0.90
2022-12-20T03:39:44.426Z,0.90
2022-12-20T03:42:11.447Z,0.75
2022-12-20T03:44:40.649Z,0.90
2022-12-20T03:47:07.733Z,1.10
2022-12-20T03:49:34.652Z,0.85
2022-12-20T03:52:01.537Z,0.80
2022-12-20T03:54:28.342Z,1.05
2022-12-20T03:56:55.288Z,1.02
2022-12-20T03:59:22.289Z,0.80
2022-12-20T04:01:49.342Z,0.90
2022-12-20T04:04:16.682Z,0.90
2022-12-20T04:06:43.650Z,0.80
2022-12-20T04:09:10.771Z,0.80
2022-12-20T04:11:37.735Z,0.80
2022-12-20T04:14:04.661Z,0.80
2022-12-20T04:16:34.064Z,0.70
2022-12-20T04:19:01.059Z,0.70
2022-12-20T04:21:32.184Z,0.60
2022-12-20T04:24:01.673Z,0.68
2022-12-20T04:26:29.284Z,0.70
2022-12-20T04:28:56.364Z,0.68
2022-12-20T04:31:24.405Z,0.73
2022-12-20T04:33:51.918Z,0.80
2022-12-20T04:36:19.562Z,0.60
2022-12-20T04:38:46.531Z,0.80
2022-12-20T04:41:22.335Z,0.73
2022-12-20T04:43:55.287Z,0.80
2022-12-20T04:46:24.444Z,0.93
2022-12-20T04:48:59.995Z,0.80
2022-12-20T04:51:28.509Z,0.70
2022-12-20T04:53:56.032Z,0.90
2022-12-20T04:56:32.125Z,0.80
2022-12-20T04:58:59.528Z,0.70
2022-12-20T05:01:27.137Z,1.35
2022-12-20T05:03:54.552Z,0.70
2022-12-20T05:06:21.613Z,0.90
2022-12-20T05:08:48.868Z,1.10
2022-12-20T05:11:15.924Z,0.90
2022-12-20T05:13:42.819Z,0.98
2022-12-20T05:16:09.915Z,0.90
2022-12-20T05:18:37.122Z,0.65
2022-12-20T05:21:23.712Z,0.70
2022-12-20T05:24:09.273Z,0.80
2022-12-20T05:26:37.948Z,0.70
2022-12-20T05:29:06.344Z,0.90
2022-12-20T05:31:33.915Z,0.70
2022-12-20T05:34:01.412Z,0.90
2022-12-20T05:36:28.675Z,0.90
2022-12-20T05:39:01.931Z,0.70
2022-12-20T05:41:30.743Z,0.80
2022-12-20T05:43:57.927Z,0.80
2022-12-20T05:46:24.973Z,0.82
2022-12-20T05:48:52.485Z,0.90
2022-12-20T05:51:19.454Z,1.00
2022-12-20T05:53:46.341Z,0.75
2022-12-20T05:56:13.515Z,0.88
2022-12-20T05:58:40.527Z,0.60
2022-12-20T06:01:10.160Z,0.68
2022-12-20T06:03:39.052Z,0.60
2022-12-20T06:06:13.610Z,0.65
2022-12-20T06:08:41.965Z,0.70
2022-12-20T06:11:08.933Z,0.90
2022-12-20T06:13:36.019Z,0.95
2022-12-20T06:16:03.117Z,0.80
2022-12-20T06:18:29.997Z,0.75
2022-12-20T06:20:56.852Z,0.80
2022-12-20T06:23:23.947Z,0.63
2022-12-20T06:25:51.907Z,0.90
2022-12-20T06:28:21.993Z,0.70
2022-12-20T06:30:57.130Z,0.80
2022-12-20T06:33:25.183Z,0.70
2022-12-20T06:35:52.781Z,0.73
2022-12-20T06:38:19.902Z,0.80
2022-12-20T06:40:46.836Z,0.70
2022-12-20T06:43:13.703Z,0.73
2022-12-20T06:45:42.114Z,0.70
2022-12-20T06:48:11.061Z,0.80
2022-12-20T06:50:39.595Z,0.77
2022-12-20T06:53:06.573Z,0.70
2022-12-20T06:55:33.829Z,0.70
2022-12-20T06:58:00.750Z,0.80
2022-12-20T07:00:27.683Z,0.70
2022-12-20T07:02:54.900Z,0.73
2022-12-20T07:05:22.039Z,0.75
2022-12-20T07:07:49.176Z,1.02
2022-12-20T07:10:16.639Z,0.95
2022-12-20T07:12:47.795Z,0.68
2022-12-20T07:15:16.860Z,0.70
2022-12-20T07:17:46.550Z,0.65
2022-12-20T07:20:14.824Z,0.70
2022-12-20T07:22:42.579Z,0.80
2022-12-20T07:25:11.426Z,0.60
2022-12-20T07:27:38.499Z,0.80
2022-12-20T07:30:06.801Z,1.77
2022-12-20T07:32:33.773Z,0.70
2022-12-20T07:35:01.482Z,0.90
2022-12-20T07:37:31.496Z,2.25
2022-12-20T07:39:58.544Z,0.80
2022-12-20T07:42:31.803Z,1.77
2022-12-20T07:45:02.793Z,0.80
2022-12-20T07:47:30.131Z,1.15
2022-12-20T07:49:57.101Z,0.85
2022-12-20T07:52:27.327Z,2.08
2022-12-20T07:55:01.353Z,0.88
2022-12-20T07:57:37.478Z,1.48
2022-12-20T08:00:05.662Z,0.95
2022-12-20T08:03:16.648Z,2.00
2022-12-20T08:05:51.012Z,5.00
2022-12-20T08:08:18.907Z,1.60
2022-12-20T08:10:46.873Z,4.13
2022-12-20T08:13:14.067Z,6.90
2022-12-20T08:15:41.381Z,3.78
2022-12-20T08:18:08.329Z,4.00
2022-12-20T08:20:35.451Z,7.32
2022-12-20T08:23:05.803Z,5.38
2022-12-20T08:25:41.095Z,7.22
2022-12-20T08:28:09.406Z,5.65
2022-12-20T08:30:38.901Z,10.48
2022-12-20T08:33:06.052Z,5.57
2022-12-20T08:35:36.184Z,5.68
2022-12-20T08:38:03.200Z,5.63
2022-12-20T08:40:30.139Z,5.05
2022-12-20T08:42:58.768Z,1.70
2022-12-20T08:45:25.669Z,4.03
2022-12-20T08:47:54.675Z,7.22
2022-12-20T08:50:21.549Z,2.33
2022-12-20T08:52:48.463Z,3.83
2022-12-20T08:55:15.532Z,4.13
2022-12-20T08:57:42.516Z,2.47
2022-12-20T09:00:11.110Z,2.88
2022-12-20T09:02:38.535Z,3.53
2022-12-20T09:05:06.212Z,2.20
2022-12-20T09:07:33.374Z,2.90
2022-12-20T09:10:03.162Z,4.03
2022-12-20T09:12:30.102Z,2.45
2022-12-20T09:14:57.703Z,2.45
2022-12-20T09:17:27.636Z,5.05
2022-12-20T09:19:55.216Z,3.30
2022-12-20T09:22:22.088Z,5.47
2022-12-20T09:24:50.195Z,4.00
2022-12-20T09:27:17.201Z,2.80
2022-12-20T09:29:44.224Z,4.00
2022-12-20T09:32:11.173Z,1.65
2022-12-20T09:34:39.279Z,4.80
2022-12-20T09:37:06.482Z,5.05
2022-12-20T09:39:33.825Z,2.70
2022-12-20T09:42:01.195Z,3.42
2022-12-20T09:44:34.635Z,4.50
2022-12-20T09:47:10.772Z,4.50
2022-12-20T09:49:45.754Z,3.50
2022-12-20T09:52:29.846Z,3.10
2022-12-20T09:55:23.109Z,1.95
2022-12-20T09:58:18.803Z,1.85
2022-12-20T10:00:54.199Z,2.00
2022-12-20T10:03:35.787Z,2.08
2022-12-20T10:06:40.235Z,1.65
2022-12-20T10:09:57.447Z,1.45
2022-12-20T10:12:46.044Z,5.75
2022-12-20T10:15:42.351Z,2.38
2022-12-20T10:19:11.063Z,1.40
2022-12-20T10:22:34.623Z,1.58
2022-12-20T10:25:25.160Z,1.65
2022-12-20T10:27:57.029Z,1.35
2022-12-20T10:30:26.929Z,4.22
2022-12-20T10:32:57.872Z,2.05
2022-12-20T10:35:34.077Z,1.40
2022-12-20T10:38:12.491Z,1.60
2022-12-20T10:41:21.153Z,2.40
2022-12-20T10:44:15.546Z,1.23
2022-12-20T10:46:56.619Z,1.70
2022-12-20T10:49:39.479Z,0.93
2022-12-20T10:52:09.200Z,1.58
2022-12-20T10:54:39.711Z,1.20
2022-12-20T10:57:27.187Z,1.40
2022-12-20T11:00:01.039Z,3.97
2022-12-20T11:02:39.625Z,3.22
2022-12-20T11:05:14.225Z,3.42
2022-12-20T11:08:40.445Z,1.13
2022-12-20T11:11:24.318Z,2.50
2022-12-20T11:13:52.678Z,1.73
2022-12-20T11:16:51.582Z,1.10
2022-12-20T11:20:12.631Z,2.17
2022-12-20T11:23:14.616Z,3.53
2022-12-20T11:25:59.904Z,1.75
2022-12-20T11:29:04.152Z,4.65
2022-12-20T11:32:03.535Z,2.30
2022-12-20T11:35:14.373Z,3.17
2022-12-20T11:38:12.654Z,1.52
2022-12-20T11:41:18.581Z,3.70
2022-12-20T11:44:29.743Z,2.70
2022-12-20T11:47:17.855Z,1.40
2022-12-20T11:50:18.325Z,2.05
2022-12-20T11:53:08.965Z,3.78
2022-12-20T11:55:41.822Z,3.10
2022-12-20T11:58:19.689Z,3.15
2022-12-20T12:01:04.613Z,1.50
2022-12-20T12:03:43.282Z,3.17
2022-12-20T12:06:23.065Z,3.17
2022-12-20T12:09:40.225Z,4.53
2022-12-20T12:12:29.404Z,2.63
2022-12-20T12:15:33.544Z,1.45
2022-12-20T12:18:09.859Z,2.17
2022-12-20T12:20:54.887Z,4.43
2022-12-20T12:24:24.452Z,1.95
2022-12-20T12:26:52.726Z,5.85
2022-12-20T12:29:22.220Z,3.22
2022-12-20T12:32:26.086Z,5.80
2022-12-20T12:35:47.471Z,3.83
2022-12-20T12:38:38.401Z,6.35
2022-12-20T12:41:36.473Z,2.42
2022-12-20T12:44:45.636Z,2.40
2022-12-20T12:47:55.523Z,3.28
2022-12-20T12:50:45.330Z,4.93
2022-12-20T12:53:36.898Z,8.07
2022-12-20T12:56:45.963Z,9.30
2022-12-20T12:59:13.551Z,2.42
2022-12-20T13:01:56.282Z,3.78
2022-12-20T13:04:29.063Z,4.60
2022-12-20T13:11:28.186Z,2.72
2022-12-20T13:14:22.315Z,8.70
2022-12-20T13:17:13.177Z,1.98
2022-12-20T13:19:54.770Z,3.85
2022-12-20T13:22:26.605Z,3.15
2022-12-20T13:25:29.155Z,2.58
2022-12-20T13:28:16.727Z,2.70
2022-12-20T13:30:46.605Z,1.73
2022-12-20T13:33:24.793Z,2.85
2022-12-20T13:36:23.871Z,2.70
2022-12-20T13:38:58.205Z,3.17
2022-12-20T13:41:38.435Z,3.33
2022-12-20T13:44:17.202Z,1.63
2022-12-20T13:47:28.298Z,1.20
2022-12-20T13:49:55.486Z,3.15
2022-12-20T13:52:34.480Z,2.15
2022-12-20T13:55:17.765Z,2.05
2022-12-20T13:57:46.250Z,1.92
2022-12-20T14:00:19.471Z,1.95
2022-12-20T14:02:46.983Z,3.13
2022-12-20T14:05:31.190Z,3.63
2022-12-20T14:08:13.790Z,3.58
2022-12-20T14:10:40.807Z,2.88
2022-12-20T14:13:22.945Z,1.60
2022-12-20T14:15:52.162Z,1.42
2022-12-20T14:18:25.198Z,1.85
2022-12-20T14:21:05.051Z,3.88
2022-12-20T14:23:42.691Z,3.10
2022-12-20T14:26:48.128Z,2.47
2022-12-20T14:29:24.749Z,3.28
2022-12-20T14:31:51.794Z,2.13
2022-12-20T14:34:42.013Z,1.73
2022-12-20T14:37:31.714Z,3.78
2022-12-20T14:40:19.289Z,2.03
2022-12-20T14:42:46.744Z,2.78
2022-12-20T14:45:13.713Z,4.25
2022-12-20T14:48:12.460Z,2.35
2022-12-20T14:50:43.557Z,3.13
2022-12-20T14:53:23.104Z,4.00
2022-12-20T14:55:50.131Z,2.13
2022-12-20T14:58:33.195Z,4.13
2022-12-20T15:01:17.398Z,1.45
2022-12-20T15:03:56.741Z,2.17
2022-12-20T15:06:44.511Z,4.60
2022-12-20T15:09:11.942Z,3.60
2022-12-20T15:11:39.275Z,3.70
2022-12-20T15:14:40.746Z,2.15
2022-12-20T15:17:14.673Z,2.20
2022-12-20T15:19:42.891Z,1.60
2022-12-20T15:22:18.033Z,1.33
2022-12-20T15:24:45.011Z,1.02
2022-12-20T15:27:15.152Z,2.22
2022-12-20T15:29:42.544Z,3.92
2022-12-20T15:32:23.564Z,1.65
2022-12-20T15:34:50.657Z,3.53
2022-12-20T15:37:19.017Z,2.58
2022-12-20T15:39:46.389Z,3.22
2022-12-20T15:42:18.241Z,2.45
2022-12-20T15:44:45.801Z,4.32
2022-12-20T15:47:13.813Z,1.85
2022-12-20T15:49:46.120Z,1.63
2022-12-20T15:52:22.452Z,2.47
2022-12-20T15:54:50.119Z,2.50
2022-12-20T15:57:17.202Z,2.72
2022-12-20T16:00:01.761Z,3.67
2022-12-20T16:02:31.313Z,2.88
2022-12-20T16:04:59.246Z,2.08
2022-12-20T16:07:26.441Z,1.67
2022-12-20T16:09:54.094Z,3.55
2022-12-20T16:12:34.627Z,2.58
2022-12-20T16:15:01.914Z,5.28
2022-12-20T16:17:28.851Z,5.15
2022-12-20T16:19:55.894Z,3.80
2022-12-20T16:22:24.070Z,1.60
2022-12-20T16:24:51.909Z,3.33
2022-12-20T16:27:20.270Z,4.05
2022-12-20T16:29:47.350Z,1.95
2022-12-20T16:32:21.873Z,1.55
2022-12-20T16:34:52.738Z,3.63
2022-12-20T16:37:19.768Z,1.73
2022-12-20T16:39:46.788Z,2.25
2022-12-20T16:42:22.892Z,4.38
2022-12-20T16:44:54.204Z,3.47
2022-12-20T16:47:22.290Z,3.17
2022-12-20T16:49:52.936Z,3.63
2022-12-20T16:52:22.664Z,3.90
2022-12-20T16:54:50.782Z,5.10
2022-12-20T16:57:17.714Z,3.05
2022-12-20T16:59:44.732Z,2.22
2022-12-20T17:02:34.017Z,3.28
2022-12-20T17:05:02.252Z,2.97
2022-12-20T17:07:29.279Z,1.35
2022-12-20T17:10:11.519Z,2.45
2022-12-20T17:12:38.526Z,1.13
2022-12-20T17:15:06.385Z,4.05
2022-12-20T17:17:33.262Z,2.72
2022-12-20T17:20:00.297Z,4.68
2022-12-20T17:25:35.729Z,1.98
2022-12-20T17:28:02.760Z,1.88
2022-12-20T17:30:29.638Z,3.08
2022-12-20T17:32:56.490Z,3.72
2022-12-20T17:35:30.962Z,2.40
2022-12-20T17:38:01.782Z,2.97
2022-12-20T17:40:29.328Z,2.17
2022-12-20T17:42:56.426Z,2.20
2022-12-20T17:45:32.976Z,1.60
2022-12-20T17:48:00.154Z,3.17
2022-12-20T17:50:27.962Z,4.40
2022-12-20T17:52:55.472Z,3.50
2022-12-20T17:55:28.020Z,2.38
2022-12-20T17:57:56.228Z,1.27
2022-12-20T18:00:36.637Z,1.60
2022-12-20T18:03:05.765Z,1.25
2022-12-20T18:05:32.821Z,2.33
2022-12-20T18:07:59.839Z,1.10
2022-12-20T18:10:26.777Z,2.20
2022-12-20T18:12:53.723Z,2.60
2022-12-20T18:15:20.687Z,1.33
2022-12-20T18:17:47.674Z,1.00
2022-12-20T18:20:15.175Z,1.17
2022-12-20T18:22:42.332Z,1.00
2022-12-20T18:25:09.939Z,1.60
2022-12-20T18:27:42.878Z,1.67
2022-12-20T18:30:12.764Z,1.65
2022-12-20T18:32:40.856Z,2.20
2022-12-20T18:35:09.827Z,1.80
2022-12-20T18:37:37.162Z,1.63
2022-12-20T18:40:04.669Z,1.27
2022-12-20T18:42:31.619Z,1.20
2022-12-20T18:44:58.677Z,1.20
2022-12-20T18:47:25.924Z,3.08
2022-12-20T18:49:52.917Z,1.52
2022-12-20T18:52:20.149Z,1.10
2022-12-20T18:54:47.227Z,1.30
2022-12-20T18:57:14.148Z,1.15
2022-12-20T18:59:41.168Z,1.30
2022-12-20T19:02:12.158Z,1.52
2022-12-20T19:04:39.208Z,1.27
2022-12-20T19:07:06.519Z,1.70
2022-12-20T19:09:33.463Z,0.85
2022-12-20T19:12:00.414Z,1.63
2022-12-20T19:14:27.565Z,1.73
2022-12-20T19:16:54.839Z,1.00
2022-12-20T19:19:21.968Z,0.98
2022-12-20T19:21:48.844Z,0.80
2022-12-20T19:24:15.795Z,1.25
2022-12-20T19:26:44.172Z,1.05
2022-12-20T19:29:11.821Z,1.40
2022-12-20T19:31:39.069Z,1.35
2022-12-20T19:34:10.828Z,1.02
2022-12-20T19:36:45.269Z,2.17
2022-12-20T19:39:23.402Z,0.90
2022-12-20T19:44:38.751Z,1.10
2022-12-20T19:47:06.050Z,1.02
2022-12-20T19:49:33.650Z,1.35
2022-12-20T19:52:00.582Z,1.48
2022-12-20T19:54:27.943Z,0.90
2022-12-20T19:56:54.924Z,2.47
2022-12-20T19:59:22.070Z,0.90
2022-12-20T20:01:49.271Z,0.93
2022-12-20T20:04:16.313Z,2.15
2022-12-20T20:06:43.383Z,1.23
2022-12-20T20:09:11.461Z,1.02
2022-12-20T20:11:38.372Z,2.58
2022-12-20T20:14:08.237Z,1.10
2022-12-20T20:16:36.889Z,2.30
2022-12-20T20:19:05.628Z,1.30
2022-12-20T20:21:35.015Z,0.85
2022-12-20T20:24:02.179Z,1.23
2022-12-20T20:26:31.662Z,0.98
2022-12-20T20:29:01.738Z,0.90
2022-12-20T20:31:29.271Z,1.05
2022-12-20T20:33:58.467Z,1.27
2022-12-20T20:36:25.508Z,1.08
2022-12-20T20:38:52.741Z,1.00
2022-12-20T20:41:20.165Z,1.23
2022-12-20T20:43:47.262Z,0.85
2022-12-20T20:46:16.446Z,0.90
2022-12-20T20:48:44.601Z,1.20
2022-12-20T20:51:12.153Z,0.90
2022-12-20T20:53:39.510Z,1.00
2022-12-20T20:56:08.199Z,1.20
2022-12-20T20:58:36.330Z,0.90
2022-12-20T21:01:07.782Z,0.85
2022-12-20T21:03:34.876Z,0.90
2022-12-20T21:08:49.003Z,1.10
2022-12-20T21:11:16.171Z,1.30
2022-12-20T21:13:43.453Z,1.20
2022-12-20T21:16:22.184Z,1.75
2022-12-20T21:18:58.728Z,1.80
2022-12-20T21:21:27.149Z,1.08
2022-12-20T21:23:55.732Z,0.95
2022-12-20T21:26:27.940Z,1.83
2022-12-20T21:29:00.055Z,1.00
2022-12-20T21:31:28.262Z,1.40
2022-12-20T21:33:56.732Z,1.02
2022-12-20T21:36:24.779Z,1.15
2022-12-20T21:38:56.011Z,1.50
2022-12-20T21:41:27.019Z,1.00
2022-12-20T21:43:59.638Z,1.38
2022-12-20T21:46:28.992Z,1.00
2022-12-20T21:48:56.122Z,1.10
2022-12-20T21:51:26.409Z,0.90
2022-12-20T21:53:57.707Z,1.20
2022-12-20T21:56:28.190Z,1.42
2022-12-20T21:58:56.144Z,1.13
2022-12-20T22:01:27.022Z,1.10
2022-12-20T22:04:01.393Z,1.23
2022-12-20T22:06:29.273Z,1.50
2022-12-20T22:09:06.822Z,1.20
2022-12-20T22:11:35.171Z,1.00
2022-12-20T22:14:02.421Z,1.30
2022-12-20T22:16:31.984Z,1.08
2022-12-20T22:19:00.272Z,1.63
2022-12-20T22:21:31.485Z,1.60
2022-12-20T22:24:00.218Z,1.08
2022-12-20T22:26:30.668Z,1.30
2022-12-20T22:29:03.268Z,1.23
2022-12-20T22:31:30.740Z,1.30
2022-12-20T22:33:58.900Z,1.23
2022-12-20T22:36:26.930Z,1.05
2022-12-20T22:38:56.664Z,1.10
2022-12-20T22:41:30.191Z,1.15
2022-12-20T22:43:59.644Z,1.17
2022-12-20T22:46:29.488Z,1.00
2022-12-20T22:48:58.095Z,1.20
2022-12-20T22:51:27.390Z,1.20
2022-12-20T22:53:55.143Z,1.67
2022-12-20T22:56:22.212Z,1.05
2022-12-20T22:58:50.086Z,1.23
2022-12-20T23:01:20.145Z,1.20
2022-12-20T23:03:48.333Z,0.95
2022-12-20T23:06:19.978Z,1.10
2022-12-20T23:08:47.875Z,1.10
2022-12-20T23:11:45.928Z,1.00
2022-12-20T23:14:49.121Z,1.10
2022-12-20T23:17:16.645Z,1.00
2022-12-20T23:20:02.056Z,1.05
2022-12-20T23:22:37.900Z,0.77
2022-12-20T23:25:06.114Z,0.90
2022-12-20T23:27:33.480Z,1.13
2022-12-20T23:30:00.455Z,1.10
2022-12-20T23:32:27.426Z,1.15
2022-12-20T23:34:54.380Z,0.85
2022-12-20T23:37:21.473Z,1.30
2022-12-20T23:39:48.386Z,1.27
2022-12-20T23:42:15.497Z,1.15
2022-12-20T23:44:42.473Z,1.20
2022-12-20T23:47:13.011Z,1.42
2022-12-20T23:49:42.555Z,0.95
2022-12-20T23:52:09.425Z,0.98
2022-12-20T23:54:36.340Z,0.90
2022-12-20T23:57:03.360Z,0.90
2022-12-20T23:59:30.336Z,0.90
